sensor_id;sensor_type;location;lat;lon;timestamp;temperature;humidity
1716;DHT22;855;48.824;9.220;2023-04-01T00:01:41;10.80;87.90
1716;DHT22;855;48.824;9.220;2023-04-01T00:04:08;10.80;87.10
1716;DHT22;855;48.824;9.220;2023-04-01T00:06:35;10.90;87.00
1716;DHT22;855;48.824;9.220;2023-04-01T00:09:02;10.90;87.30
1716;DHT22;855;48.824;9.220;2023-04-01T00:11:29;10.90;87.10
1716;DHT22;855;48.824;9.220;2023-04-01T00:13:56;10.90;87.10
1716;DHT22;855;48.824;9.220;2023-04-01T00:16:22;10.90;87.00
1716;DHT22;855;48.824;9.220;2023-04-01T00:18:51;10.90;87.30
1716;DHT22;855;48.824;9.220;2023-04-01T00:21:19;10.80;87.50
1716;DHT22;855;48.824;9.220;2023-04-01T00:23:47;10.80;87.80
1716;DHT22;855;48.824;9.220;2023-04-01T00:26:14;10.80;87.50
1716;DHT22;855;48.824;9.220;2023-04-01T00:28:44;10.80;87.70
1716;DHT22;855;48.824;9.220;2023-04-01T00:31:12;10.80;87.50
1716;DHT22;855;48.824;9.220;2023-04-01T00:33:40;10.90;87.40
1716;DHT22;855;48.824;9.220;2023-04-01T00:36:10;10.90;87.50
1716;DHT22;855;48.824;9.220;2023-04-01T00:38:38;10.90;87.40
1716;DHT22;855;48.824;9.220;2023-04-01T00:41:05;10.90;87.30
1716;DHT22;855;48.824;9.220;2023-04-01T00:43:33;10.90;87.30
1716;DHT22;855;48.824;9.220;2023-04-01T00:46:00;10.90;87.40
1716;DHT22;855;48.824;9.220;2023-04-01T00:48:30;11.00;87.10
1716;DHT22;855;48.824;9.220;2023-04-01T00:51:00;11.00;87.00
1716;DHT22;855;48.824;9.220;2023-04-01T00:53:31;11.10;86.90
1716;DHT22;855;48.824;9.220;2023-04-01T00:56:03;11.00;86.90
1716;DHT22;855;48.824;9.220;2023-04-01T00:58:34;11.00;87.00
1716;DHT22;855;48.824;9.220;2023-04-01T01:01:01;11.00;87.50
1716;DHT22;855;48.824;9.220;2023-04-01T01:03:28;11.00;87.50
1716;DHT22;855;48.824;9.220;2023-04-01T01:06:10;10.90;87.80
1716;DHT22;855;48.824;9.220;2023-04-01T01:11:39;11.00;87.90
1716;DHT22;855;48.824;9.220;2023-04-01T01:14:13;11.00;87.90
1716;DHT22;855;48.824;9.220;2023-04-01T01:16:45;11.00;88.10
1716;DHT22;855;48.824;9.220;2023-04-01T01:19:33;11.00;88.60
1716;DHT22;855;48.824;9.220;2023-04-01T01:22:22;11.00;88.50
1716;DHT22;855;48.824;9.220;2023-04-01T01:24:56;11.00;89.00
1716;DHT22;855;48.824;9.220;2023-04-01T01:27:25;11.00;89.10
1716;DHT22;855;48.824;9.220;2023-04-01T01:33:18;11.00;89.10
1716;DHT22;855;48.824;9.220;2023-04-01T01:35:52;10.90;89.50
1716;DHT22;855;48.824;9.220;2023-04-01T01:38:22;11.00;89.40
1716;DHT22;855;48.824;9.220;2023-04-01T01:40:51;11.00;89.40
1716;DHT22;855;48.824;9.220;2023-04-01T01:43:22;10.90;89.40
1716;DHT22;855;48.824;9.220;2023-04-01T01:45:53;10.90;89.50
1716;DHT22;855;48.824;9.220;2023-04-01T01:48:22;10.80;90.10
1716;DHT22;855;48.824;9.220;2023-04-01T01:50:51;10.80;90.60
1716;DHT22;855;48.824;9.220;2023-04-01T01:53:19;10.70;90.90
1716;DHT22;855;48.824;9.220;2023-04-01T01:55:47;10.70;91.40
1716;DHT22;855;48.824;9.220;2023-04-01T01:58:17;10.60;91.70
1716;DHT22;855;48.824;9.220;2023-04-01T02:00:50;10.70;91.90
1716;DHT22;855;48.824;9.220;2023-04-01T02:03:20;10.70;92.00
1716;DHT22;855;48.824;9.220;2023-04-01T02:05:49;10.80;91.90
1716;DHT22;855;48.824;9.220;2023-04-01T02:08:21;10.80;91.90
1716;DHT22;855;48.824;9.220;2023-04-01T02:10:55;10.80;92.10
1716;DHT22;855;48.824;9.220;2023-04-01T02:13:27;10.70;92.20
1716;DHT22;855;48.824;9.220;2023-04-01T02:15:59;10.60;91.70
1716;DHT22;855;48.824;9.220;2023-04-01T02:18:28;10.70;92.00
1716;DHT22;855;48.824;9.220;2023-04-01T02:20:57;10.70;92.00
1716;DHT22;855;48.824;9.220;2023-04-01T02:23:28;10.70;91.90
1716;DHT22;855;48.824;9.220;2023-04-01T02:25:55;10.70;92.00
1716;DHT22;855;48.824;9.220;2023-04-01T02:28:23;10.70;92.00
1716;DHT22;855;48.824;9.220;2023-04-01T02:30:51;10.80;91.90
1716;DHT22;855;48.824;9.220;2023-04-01T02:33:19;10.80;91.50
1716;DHT22;855;48.824;9.220;2023-04-01T02:35:46;10.80;91.60
1716;DHT22;855;48.824;9.220;2023-04-01T02:38:13;10.80;91.80
1716;DHT22;855;48.824;9.220;2023-04-01T02:40:46;10.70;91.70
1716;DHT22;855;48.824;9.220;2023-04-01T02:43:13;10.70;91.90
1716;DHT22;855;48.824;9.220;2023-04-01T02:45:40;10.70;91.70
1716;DHT22;855;48.824;9.220;2023-04-01T02:48:07;10.70;91.40
1716;DHT22;855;48.824;9.220;2023-04-01T02:50:34;10.70;91.20
1716;DHT22;855;48.824;9.220;2023-04-01T02:53:01;10.50;91.00
1716;DHT22;855;48.824;9.220;2023-04-01T02:55:29;10.50;91.20
1716;DHT22;855;48.824;9.220;2023-04-01T02:57:57;10.50;91.30
1716;DHT22;855;48.824;9.220;2023-04-01T03:00:24;10.50;91.10
1716;DHT22;855;48.824;9.220;2023-04-01T03:02:51;10.40;91.20
1716;DHT22;855;48.824;9.220;2023-04-01T03:05:18;10.30;90.80
1716;DHT22;855;48.824;9.220;2023-04-01T03:07:46;10.40;90.80
1716;DHT22;855;48.824;9.220;2023-04-01T03:10:13;10.30;90.50
1716;DHT22;855;48.824;9.220;2023-04-01T03:12:40;10.20;90.60
1716;DHT22;855;48.824;9.220;2023-04-01T03:15:10;10.20;90.60
1716;DHT22;855;48.824;9.220;2023-04-01T03:17:37;10.30;90.60
1716;DHT22;855;48.824;9.220;2023-04-01T03:20:04;10.30;90.40
1716;DHT22;855;48.824;9.220;2023-04-01T03:22:31;10.30;90.40
1716;DHT22;855;48.824;9.220;2023-04-01T03:24:58;10.30;90.40
1716;DHT22;855;48.824;9.220;2023-04-01T03:27:25;10.30;90.40
1716;DHT22;855;48.824;9.220;2023-04-01T03:29:52;10.40;90.10
1716;DHT22;855;48.824;9.220;2023-04-01T03:32:20;10.30;89.50
1716;DHT22;855;48.824;9.220;2023-04-01T03:34:47;10.30;89.70
1716;DHT22;855;48.824;9.220;2023-04-01T03:37:14;10.30;89.40
1716;DHT22;855;48.824;9.220;2023-04-01T03:39:41;10.30;89.50
1716;DHT22;855;48.824;9.220;2023-04-01T03:42:07;10.30;89.50
1716;DHT22;855;48.824;9.220;2023-04-01T03:44:35;10.20;89.70
1716;DHT22;855;48.824;9.220;2023-04-01T03:47:01;10.30;89.80
1716;DHT22;855;48.824;9.220;2023-04-01T03:49:30;10.30;89.70
1716;DHT22;855;48.824;9.220;2023-04-01T03:51:57;10.30;89.90
1716;DHT22;855;48.824;9.220;2023-04-01T03:54:24;10.30;89.50
1716;DHT22;855;48.824;9.220;2023-04-01T03:56:51;10.30;89.30
1716;DHT22;855;48.824;9.220;2023-04-01T03:59:18;10.30;89.30
1716;DHT22;855;48.824;9.220;2023-04-01T04:01:46;10.10;89.50
1716;DHT22;855;48.824;9.220;2023-04-01T04:04:13;10.10;89.70
1716;DHT22;855;48.824;9.220;2023-04-01T04:06:41;10.10;89.30
1716;DHT22;855;48.824;9.220;2023-04-01T04:09:08;10.00;89.10
1716;DHT22;855;48.824;9.220;2023-04-01T04:11:35;10.00;89.10
1716;DHT22;855;48.824;9.220;2023-04-01T04:14:02;10.00;89.10
1716;DHT22;855;48.824;9.220;2023-04-01T04:16:29;10.00;89.00
1716;DHT22;855;48.824;9.220;2023-04-01T04:18:56;10.00;88.90
1716;DHT22;855;48.824;9.220;2023-04-01T04:21:22;10.10;89.10
1716;DHT22;855;48.824;9.220;2023-04-01T04:23:51;10.10;89.10
1716;DHT22;855;48.824;9.220;2023-04-01T04:26:17;10.20;88.60
1716;DHT22;855;48.824;9.220;2023-04-01T04:28:44;10.20;88.20
1716;DHT22;855;48.824;9.220;2023-04-01T04:31:11;10.20;88.10
1716;DHT22;855;48.824;9.220;2023-04-01T04:33:38;10.20;88.10
1716;DHT22;855;48.824;9.220;2023-04-01T04:36:06;10.20;87.80
1716;DHT22;855;48.824;9.220;2023-04-01T04:38:32;10.10;87.80
1716;DHT22;855;48.824;9.220;2023-04-01T04:41:01;10.00;87.50
1716;DHT22;855;48.824;9.220;2023-04-01T04:43:27;10.10;87.80
1716;DHT22;855;48.824;9.220;2023-04-01T04:45:54;10.00;87.40
1716;DHT22;855;48.824;9.220;2023-04-01T04:48:21;10.00;87.50
1716;DHT22;855;48.824;9.220;2023-04-01T04:50:49;9.90;87.90
1716;DHT22;855;48.824;9.220;2023-04-01T04:53:17;9.90;88.20
1716;DHT22;855;48.824;9.220;2023-04-01T04:55:46;10.00;87.80
1716;DHT22;855;48.824;9.220;2023-04-01T04:58:14;9.90;87.90
1716;DHT22;855;48.824;9.220;2023-04-01T05:00:42;9.80;88.20
1716;DHT22;855;48.824;9.220;2023-04-01T05:03:09;9.80;88.50
1716;DHT22;855;48.824;9.220;2023-04-01T05:05:36;9.80;88.60
1716;DHT22;855;48.824;9.220;2023-04-01T05:08:03;9.80;88.60
1716;DHT22;855;48.824;9.220;2023-04-01T05:10:30;9.70;89.00
1716;DHT22;855;48.824;9.220;2023-04-01T05:12:57;9.70;89.10
1716;DHT22;855;48.824;9.220;2023-04-01T05:15:25;9.70;89.40
1716;DHT22;855;48.824;9.220;2023-04-01T05:17:52;9.70;89.50
1716;DHT22;855;48.824;9.220;2023-04-01T05:20:19;9.70;89.50
1716;DHT22;855;48.824;9.220;2023-04-01T05:22:46;9.70;89.50
1716;DHT22;855;48.824;9.220;2023-04-01T05:25:13;9.70;89.70
1716;DHT22;855;48.824;9.220;2023-04-01T05:27:40;9.80;89.50
1716;DHT22;855;48.824;9.220;2023-04-01T05:30:07;9.70;89.40
1716;DHT22;855;48.824;9.220;2023-04-01T05:32:35;9.70;89.50
1716;DHT22;855;48.824;9.220;2023-04-01T05:35:03;9.80;89.70
1716;DHT22;855;48.824;9.220;2023-04-01T05:37:30;9.80;89.40
1716;DHT22;855;48.824;9.220;2023-04-01T05:39:56;9.80;89.80
1716;DHT22;855;48.824;9.220;2023-04-01T05:42:24;9.90;89.80
1716;DHT22;855;48.824;9.220;2023-04-01T05:44:51;10.00;89.80
1716;DHT22;855;48.824;9.220;2023-04-01T05:47:17;10.10;89.30
1716;DHT22;855;48.824;9.220;2023-04-01T05:49:46;10.10;89.30
1716;DHT22;855;48.824;9.220;2023-04-01T05:52:12;10.20;88.90
1716;DHT22;855;48.824;9.220;2023-04-01T05:54:40;10.30;88.90
1716;DHT22;855;48.824;9.220;2023-04-01T05:57:06;10.40;88.60
1716;DHT22;855;48.824;9.220;2023-04-01T05:59:33;10.40;88.10
1716;DHT22;855;48.824;9.220;2023-04-01T06:02:00;10.40;88.10
1716;DHT22;855;48.824;9.220;2023-04-01T06:04:31;10.50;87.90
1716;DHT22;855;48.824;9.220;2023-04-01T06:07:01;10.60;87.50
1716;DHT22;855;48.824;9.220;2023-04-01T06:09:31;10.60;87.10
1716;DHT22;855;48.824;9.220;2023-04-01T06:12:13;10.60;86.70
1716;DHT22;855;48.824;9.220;2023-04-01T06:14:49;10.70;86.20
1716;DHT22;855;48.824;9.220;2023-04-01T06:17:27;10.90;85.80
1716;DHT22;855;48.824;9.220;2023-04-01T06:19:59;10.90;84.90
1716;DHT22;855;48.824;9.220;2023-04-01T06:25:29;11.00;83.70
1716;DHT22;855;48.824;9.220;2023-04-01T06:28:29;10.90;83.60
1716;DHT22;855;48.824;9.220;2023-04-01T06:31:05;11.10;83.40
1716;DHT22;855;48.824;9.220;2023-04-01T06:33:54;11.10;82.80
1716;DHT22;855;48.824;9.220;2023-04-01T06:36:46;11.20;82.30
1716;DHT22;855;48.824;9.220;2023-04-01T06:39:35;11.30;82.80
1716;DHT22;855;48.824;9.220;2023-04-01T06:42:14;11.30;82.00
1716;DHT22;855;48.824;9.220;2023-04-01T06:44:52;11.40;81.70
1716;DHT22;855;48.824;9.220;2023-04-01T06:47:30;11.50;81.20
1716;DHT22;855;48.824;9.220;2023-04-01T06:50:05;11.50;81.30
1716;DHT22;855;48.824;9.220;2023-04-01T06:52:42;11.50;81.20
1716;DHT22;855;48.824;9.220;2023-04-01T06:55:27;11.40;81.30
1716;DHT22;855;48.824;9.220;2023-04-01T06:57:59;11.40;82.10
1716;DHT22;855;48.824;9.220;2023-04-01T07:00:30;11.30;81.70
1716;DHT22;855;48.824;9.220;2023-04-01T07:03:05;11.30;81.60
1716;DHT22;855;48.824;9.220;2023-04-01T07:05:33;11.40;81.70
1716;DHT22;855;48.824;9.220;2023-04-01T07:08:03;11.40;81.20
1716;DHT22;855;48.824;9.220;2023-04-01T07:10:38;11.60;81.90
1716;DHT22;855;48.824;9.220;2023-04-01T07:13:14;11.60;81.70
1716;DHT22;855;48.824;9.220;2023-04-01T07:15:44;11.80;80.10
1716;DHT22;855;48.824;9.220;2023-04-01T07:18:15;11.80;80.50
1716;DHT22;855;48.824;9.220;2023-04-01T07:20:43;11.90;80.30
1716;DHT22;855;48.824;9.220;2023-04-01T07:23:36;12.00;79.60
1716;DHT22;855;48.824;9.220;2023-04-01T07:26:15;12.10;79.30
1716;DHT22;855;48.824;9.220;2023-04-01T07:28:42;12.00;80.40
1716;DHT22;855;48.824;9.220;2023-04-01T07:31:18;12.10;80.80
1716;DHT22;855;48.824;9.220;2023-04-01T07:33:54;12.00;80.30
1716;DHT22;855;48.824;9.220;2023-04-01T07:36:26;12.00;79.60
1716;DHT22;855;48.824;9.220;2023-04-01T07:39:04;12.00;80.70
1716;DHT22;855;48.824;9.220;2023-04-01T07:41:42;12.00;80.30
1716;DHT22;855;48.824;9.220;2023-04-01T07:44:18;11.90;80.70
1716;DHT22;855;48.824;9.220;2023-04-01T07:46:59;11.80;80.50
1716;DHT22;855;48.824;9.220;2023-04-01T07:49:37;11.80;80.70
1716;DHT22;855;48.824;9.220;2023-04-01T07:52:14;11.80;81.10
1716;DHT22;855;48.824;9.220;2023-04-01T07:54:49;11.90;81.20
1716;DHT22;855;48.824;9.220;2023-04-01T07:57:19;11.90;81.20
1716;DHT22;855;48.824;9.220;2023-04-01T07:59:53;12.00;81.30
1716;DHT22;855;48.824;9.220;2023-04-01T08:02:32;12.00;80.70
1716;DHT22;855;48.824;9.220;2023-04-01T08:05:12;12.00;80.40
1716;DHT22;855;48.824;9.220;2023-04-01T08:07:45;12.00;79.90
1716;DHT22;855;48.824;9.220;2023-04-01T08:10:19;11.80;80.80
1716;DHT22;855;48.824;9.220;2023-04-01T08:12:58;11.80;81.20
1716;DHT22;855;48.824;9.220;2023-04-01T08:15:35;11.80;81.30
1716;DHT22;855;48.824;9.220;2023-04-01T08:18:09;11.90;81.10
1716;DHT22;855;48.824;9.220;2023-04-01T08:20:41;12.00;81.10
1716;DHT22;855;48.824;9.220;2023-04-01T08:23:13;12.10;80.90
1716;DHT22;855;48.824;9.220;2023-04-01T08:25:46;12.00;80.70
1716;DHT22;855;48.824;9.220;2023-04-01T08:28:20;12.10;80.90
1716;DHT22;855;48.824;9.220;2023-04-01T08:30:52;12.20;80.40
1716;DHT22;855;48.824;9.220;2023-04-01T08:33:23;12.20;80.50
1716;DHT22;855;48.824;9.220;2023-04-01T08:35:54;12.20;80.30
1716;DHT22;855;48.824;9.220;2023-04-01T08:38:26;12.20;81.10
1716;DHT22;855;48.824;9.220;2023-04-01T08:50:36;12.30;83.20
1716;DHT22;855;48.824;9.220;2023-04-01T08:53:13;12.30;84.20
1716;DHT22;855;48.824;9.220;2023-04-01T08:55:51;12.30;84.60
1716;DHT22;855;48.824;9.220;2023-04-01T08:59:04;12.20;85.00
1716;DHT22;855;48.824;9.220;2023-04-01T09:01:47;12.00;86.60
1716;DHT22;855;48.824;9.220;2023-04-01T09:04:27;12.00;86.50
1716;DHT22;855;48.824;9.220;2023-04-01T09:07:08;12.00;86.00
1716;DHT22;855;48.824;9.220;2023-04-01T09:10:01;12.00;87.50
1716;DHT22;855;48.824;9.220;2023-04-01T09:12:54;11.80;86.90
1716;DHT22;855;48.824;9.220;2023-04-01T09:15:37;11.70;86.90
1716;DHT22;855;48.824;9.220;2023-04-01T09:18:34;11.70;87.50
1716;DHT22;855;48.824;9.220;2023-04-01T09:24:34;11.80;87.10
1716;DHT22;855;48.824;9.220;2023-04-01T09:27:05;11.80;87.10
1716;DHT22;855;48.824;9.220;2023-04-01T09:29:56;11.80;86.60
1716;DHT22;855;48.824;9.220;2023-04-01T09:32:48;11.90;85.70
1716;DHT22;855;48.824;9.220;2023-04-01T09:35:22;11.90;85.30
1716;DHT22;855;48.824;9.220;2023-04-01T09:37:54;12.00;86.00
1716;DHT22;855;48.824;9.220;2023-04-01T09:40:33;12.10;84.20
1716;DHT22;855;48.824;9.220;2023-04-01T09:43:23;12.20;83.20
1716;DHT22;855;48.824;9.220;2023-04-01T09:46:16;12.20;83.20
1716;DHT22;855;48.824;9.220;2023-04-01T09:49:08;12.20;83.70
1716;DHT22;855;48.824;9.220;2023-04-01T09:51:48;12.20;83.20
1716;DHT22;855;48.824;9.220;2023-04-01T09:54:28;12.20;82.70
1716;DHT22;855;48.824;9.220;2023-04-01T10:00:28;11.90;82.30
1716;DHT22;855;48.824;9.220;2023-04-01T10:12:51;12.00;80.50
1716;DHT22;855;48.824;9.220;2023-04-01T10:18:51;11.90;79.90
1716;DHT22;855;48.824;9.220;2023-04-01T10:24:51;11.90;80.70
1716;DHT22;855;48.824;9.220;2023-04-01T10:27:48;12.00;80.50
1716;DHT22;855;48.824;9.220;2023-04-01T10:34:05;12.20;79.20
1716;DHT22;855;48.824;9.220;2023-04-01T10:36:55;12.20;78.60
1716;DHT22;855;48.824;9.220;2023-04-01T10:46:21;12.20;80.40
1716;DHT22;855;48.824;9.220;2023-04-01T10:52:12;12.30;80.00
1716;DHT22;855;48.824;9.220;2023-04-01T10:54:45;12.20;77.60
1716;DHT22;855;48.824;9.220;2023-04-01T10:57:43;12.30;78.30
1716;DHT22;855;48.824;9.220;2023-04-01T11:00:38;12.20;78.30
1716;DHT22;855;48.824;9.220;2023-04-01T11:03:28;12.30;78.30
1716;DHT22;855;48.824;9.220;2023-04-01T11:06:25;12.30;77.20
1716;DHT22;855;48.824;9.220;2023-04-01T11:12:28;12.40;78.00
1716;DHT22;855;48.824;9.220;2023-04-01T11:24:20;12.60;75.90
1716;DHT22;855;48.824;9.220;2023-04-01T11:26:58;12.60;74.90
1716;DHT22;855;48.824;9.220;2023-04-01T11:29:40;12.60;74.50
1716;DHT22;855;48.824;9.220;2023-04-01T11:32:24;12.70;75.50
1716;DHT22;855;48.824;9.220;2023-04-01T11:35:08;12.80;74.30
1716;DHT22;855;48.824;9.220;2023-04-01T11:37:45;12.80;75.10
1716;DHT22;855;48.824;9.220;2023-04-01T11:40:27;12.90;73.90
1716;DHT22;855;48.824;9.220;2023-04-01T11:43:01;13.10;73.80
1716;DHT22;855;48.824;9.220;2023-04-01T11:45:36;13.20;73.50
1716;DHT22;855;48.824;9.220;2023-04-01T11:48:25;13.40;73.30
1716;DHT22;855;48.824;9.220;2023-04-01T11:53:56;13.40;71.90
1716;DHT22;855;48.824;9.220;2023-04-01T11:56:49;13.50;71.70
1716;DHT22;855;48.824;9.220;2023-04-01T11:59:56;13.50;72.50
1716;DHT22;855;48.824;9.220;2023-04-01T12:02:31;13.40;72.10
1716;DHT22;855;48.824;9.220;2023-04-01T12:05:23;13.20;71.90
1716;DHT22;855;48.824;9.220;2023-04-01T12:08:10;13.10;73.70
1716;DHT22;855;48.824;9.220;2023-04-01T12:10:40;13.20;73.90
1716;DHT22;855;48.824;9.220;2023-04-01T12:13:20;13.10;74.70
1716;DHT22;855;48.824;9.220;2023-04-01T12:16:04;13.20;74.70
1716;DHT22;855;48.824;9.220;2023-04-01T12:18:38;13.20;75.60
1716;DHT22;855;48.824;9.220;2023-04-01T12:21:17;13.20;75.60
1716;DHT22;855;48.824;9.220;2023-04-01T12:24:03;13.20;76.20
1716;DHT22;855;48.824;9.220;2023-04-01T12:26:47;13.20;77.50
1716;DHT22;855;48.824;9.220;2023-04-01T12:29:49;13.30;77.00
1716;DHT22;855;48.824;9.220;2023-04-01T12:32:25;13.20;77.40
1716;DHT22;855;48.824;9.220;2023-04-01T12:35:07;13.20;78.40
1716;DHT22;855;48.824;9.220;2023-04-01T12:37:45;13.20;78.00
1716;DHT22;855;48.824;9.220;2023-04-01T12:40:45;13.30;78.60
1716;DHT22;855;48.824;9.220;2023-04-01T12:43:35;13.30;78.30
1716;DHT22;855;48.824;9.220;2023-04-01T12:46:15;13.30;77.40
1716;DHT22;855;48.824;9.220;2023-04-01T12:49:12;13.30;74.90
1716;DHT22;855;48.824;9.220;2023-04-01T12:52:11;13.30;75.50
1716;DHT22;855;48.824;9.220;2023-04-01T12:54:58;13.30;75.50
1716;DHT22;855;48.824;9.220;2023-04-01T13:00:31;13.30;74.60
1716;DHT22;855;48.824;9.220;2023-04-01T13:03:18;13.40;73.90
1716;DHT22;855;48.824;9.220;2023-04-01T13:06:19;13.40;72.30
1716;DHT22;855;48.824;9.220;2023-04-01T13:08:52;13.40;73.50
1716;DHT22;855;48.824;9.220;2023-04-01T13:11:27;13.60;73.50
1716;DHT22;855;48.824;9.220;2023-04-01T13:14:18;13.60;73.70
1716;DHT22;855;48.824;9.220;2023-04-01T13:16:54;13.80;73.30
1716;DHT22;855;48.824;9.220;2023-04-01T13:19:31;13.70;72.50
1716;DHT22;855;48.824;9.220;2023-04-01T13:22:07;13.50;72.70
1716;DHT22;855;48.824;9.220;2023-04-01T13:24:42;13.40;74.30
1716;DHT22;855;48.824;9.220;2023-04-01T13:27:18;13.40;73.90
1716;DHT22;855;48.824;9.220;2023-04-01T13:29:56;13.40;73.80
1716;DHT22;855;48.824;9.220;2023-04-01T13:32:29;13.50;73.80
1716;DHT22;855;48.824;9.220;2023-04-01T13:35:23;13.50;73.50
1716;DHT22;855;48.824;9.220;2023-04-01T13:38:29;13.60;73.00
1716;DHT22;855;48.824;9.220;2023-04-01T13:41:02;13.60;72.60
1716;DHT22;855;48.824;9.220;2023-04-01T13:43:36;13.70;72.10
1716;DHT22;855;48.824;9.220;2023-04-01T13:46:18;13.70;72.20
1716;DHT22;855;48.824;9.220;2023-04-01T13:49:03;13.60;71.00
1716;DHT22;855;48.824;9.220;2023-04-01T13:51:52;13.60;71.00
1716;DHT22;855;48.824;9.220;2023-04-01T13:54:35;13.60;71.80
1716;DHT22;855;48.824;9.220;2023-04-01T13:57:19;13.60;71.90
1716;DHT22;855;48.824;9.220;2023-04-01T14:00:03;13.70;71.80
1716;DHT22;855;48.824;9.220;2023-04-01T14:02:47;13.60;71.20
1716;DHT22;855;48.824;9.220;2023-04-01T14:08:18;13.50;73.10
1716;DHT22;855;48.824;9.220;2023-04-01T14:10:56;13.40;74.90
1716;DHT22;855;48.824;9.220;2023-04-01T14:13:34;13.50;74.30
1716;DHT22;855;48.824;9.220;2023-04-01T14:16:14;13.60;73.50
1716;DHT22;855;48.824;9.220;2023-04-01T14:18:59;13.50;73.50
1716;DHT22;855;48.824;9.220;2023-04-01T14:21:35;13.50;73.10
1716;DHT22;855;48.824;9.220;2023-04-01T14:24:20;13.50;73.70
1716;DHT22;855;48.824;9.220;2023-04-01T14:27:23;13.30;72.60
1716;DHT22;855;48.824;9.220;2023-04-01T14:30:08;13.10;73.80
1716;DHT22;855;48.824;9.220;2023-04-01T14:32:45;13.10;73.30
1716;DHT22;855;48.824;9.220;2023-04-01T14:35:31;13.10;74.70
1716;DHT22;855;48.824;9.220;2023-04-01T14:38:24;13.10;77.10
1716;DHT22;855;48.824;9.220;2023-04-01T14:41:02;12.90;77.20
1716;DHT22;855;48.824;9.220;2023-04-01T14:47:11;12.90;80.40
1716;DHT22;855;48.824;9.220;2023-04-01T14:49:43;12.90;80.30
1716;DHT22;855;48.824;9.220;2023-04-01T14:52:15;12.90;79.60
1716;DHT22;855;48.824;9.220;2023-04-01T14:54:45;12.90;79.70
1716;DHT22;855;48.824;9.220;2023-04-01T14:57:15;12.90;79.60
1716;DHT22;855;48.824;9.220;2023-04-01T14:59:48;12.80;78.20
1716;DHT22;855;48.824;9.220;2023-04-01T15:02:44;12.70;78.40
1716;DHT22;855;48.824;9.220;2023-04-01T15:05:23;12.70;77.40
1716;DHT22;855;48.824;9.220;2023-04-01T15:08:13;12.70;78.30
1716;DHT22;855;48.824;9.220;2023-04-01T15:10:59;13.00;77.90
1716;DHT22;855;48.824;9.220;2023-04-01T15:13:51;13.10;77.20
1716;DHT22;855;48.824;9.220;2023-04-01T15:16:25;13.30;77.40
1716;DHT22;855;48.824;9.220;2023-04-01T15:19:01;13.40;76.20
1716;DHT22;855;48.824;9.220;2023-04-01T15:21:50;13.40;74.90
1716;DHT22;855;48.824;9.220;2023-04-01T15:24:23;13.40;75.00
1716;DHT22;855;48.824;9.220;2023-04-01T15:27:03;13.30;74.60
1716;DHT22;855;48.824;9.220;2023-04-01T15:29:50;13.50;75.60
1716;DHT22;855;48.824;9.220;2023-04-01T15:32:28;13.60;75.00
1716;DHT22;855;48.824;9.220;2023-04-01T15:35:03;13.60;75.10
1716;DHT22;855;48.824;9.220;2023-04-01T15:37:39;13.50;74.90
1716;DHT22;855;48.824;9.220;2023-04-01T15:40:19;13.50;75.10
1716;DHT22;855;48.824;9.220;2023-04-01T15:42:55;13.50;75.00
1716;DHT22;855;48.824;9.220;2023-04-01T15:45:35;13.40;75.30
1716;DHT22;855;48.824;9.220;2023-04-01T15:48:13;13.40;75.10
1716;DHT22;855;48.824;9.220;2023-04-01T15:50:58;13.20;74.90
1716;DHT22;855;48.824;9.220;2023-04-01T15:53:43;13.20;75.80
1716;DHT22;855;48.824;9.220;2023-04-01T15:56:23;13.20;75.10
1716;DHT22;855;48.824;9.220;2023-04-01T15:59:01;13.00;75.00
1716;DHT22;855;48.824;9.220;2023-04-01T16:01:39;13.00;75.90
1716;DHT22;855;48.824;9.220;2023-04-01T16:04:30;13.00;75.50
1716;DHT22;855;48.824;9.220;2023-04-01T16:07:10;12.90;75.30
1716;DHT22;855;48.824;9.220;2023-04-01T16:10:04;13.00;75.00
1716;DHT22;855;48.824;9.220;2023-04-01T16:12:42;12.90;75.30
1716;DHT22;855;48.824;9.220;2023-04-01T16:15:21;12.80;75.30
1716;DHT22;855;48.824;9.220;2023-04-01T16:18:12;12.80;75.10
1716;DHT22;855;48.824;9.220;2023-04-01T16:20:47;12.70;74.10
1716;DHT22;855;48.824;9.220;2023-04-01T16:23:20;12.70;74.90
1716;DHT22;855;48.824;9.220;2023-04-01T16:25:53;12.80;75.40
1716;DHT22;855;48.824;9.220;2023-04-01T16:28:27;12.80;74.90
1716;DHT22;855;48.824;9.220;2023-04-01T16:30:59;12.90;73.90
1716;DHT22;855;48.824;9.220;2023-04-01T16:33:38;12.90;73.30
1716;DHT22;855;48.824;9.220;2023-04-01T16:36:10;12.80;73.50
1716;DHT22;855;48.824;9.220;2023-04-01T16:38:43;12.80;73.80
1716;DHT22;855;48.824;9.220;2023-04-01T16:41:17;12.70;74.10
1716;DHT22;855;48.824;9.220;2023-04-01T16:43:46;12.60;73.70
1716;DHT22;855;48.824;9.220;2023-04-01T16:46:31;12.70;73.90
1716;DHT22;855;48.824;9.220;2023-04-01T16:49:03;12.70;74.10
1716;DHT22;855;48.824;9.220;2023-04-01T16:51:39;12.80;74.20
1716;DHT22;855;48.824;9.220;2023-04-01T16:54:14;12.80;74.30
1716;DHT22;855;48.824;9.220;2023-04-01T16:56:45;12.70;73.90
1716;DHT22;855;48.824;9.220;2023-04-01T16:59:19;12.70;74.20
1716;DHT22;855;48.824;9.220;2023-04-01T17:01:52;12.60;74.70
1716;DHT22;855;48.824;9.220;2023-04-01T17:04:30;12.70;74.90
1716;DHT22;855;48.824;9.220;2023-04-01T17:07:06;12.80;75.30
1716;DHT22;855;48.824;9.220;2023-04-01T17:09:46;12.80;75.00
1716;DHT22;855;48.824;9.220;2023-04-01T17:12:21;13.00;74.60
1716;DHT22;855;48.824;9.220;2023-04-01T17:14:54;13.00;74.50
1716;DHT22;855;48.824;9.220;2023-04-01T17:17:31;12.90;75.00
1716;DHT22;855;48.824;9.220;2023-04-01T17:20:20;13.00;75.40
1716;DHT22;855;48.824;9.220;2023-04-01T17:22:54;13.00;75.80
1716;DHT22;855;48.824;9.220;2023-04-01T17:25:34;13.10;75.60
1716;DHT22;855;48.824;9.220;2023-04-01T17:28:14;13.10;75.30
1716;DHT22;855;48.824;9.220;2023-04-01T17:30:49;13.00;75.30
1716;DHT22;855;48.824;9.220;2023-04-01T17:33:35;13.00;76.20
1716;DHT22;855;48.824;9.220;2023-04-01T17:36:16;12.90;76.00
1716;DHT22;855;48.824;9.220;2023-04-01T17:39:00;12.90;76.30
1716;DHT22;855;48.824;9.220;2023-04-01T17:41:40;12.90;76.20
1716;DHT22;855;48.824;9.220;2023-04-01T17:44:16;12.80;76.20
1716;DHT22;855;48.824;9.220;2023-04-01T17:50:02;13.00;76.30
1716;DHT22;855;48.824;9.220;2023-04-01T17:52:39;13.00;75.90
1716;DHT22;855;48.824;9.220;2023-04-01T17:55:30;12.90;76.40
1716;DHT22;855;48.824;9.220;2023-04-01T17:58:03;12.80;76.40
1716;DHT22;855;48.824;9.220;2023-04-01T18:00:39;12.90;76.60
1716;DHT22;855;48.824;9.220;2023-04-01T18:03:20;13.00;77.40
1716;DHT22;855;48.824;9.220;2023-04-01T18:06:02;12.90;78.20
1716;DHT22;855;48.824;9.220;2023-04-01T18:08:44;12.80;79.70
1716;DHT22;855;48.824;9.220;2023-04-01T18:11:23;12.60;80.10
1716;DHT22;855;48.824;9.220;2023-04-01T18:14:03;12.50;81.10
1716;DHT22;855;48.824;9.220;2023-04-01T18:16:47;12.50;82.10
1716;DHT22;855;48.824;9.220;2023-04-01T18:19:25;12.40;82.90
1716;DHT22;855;48.824;9.220;2023-04-01T18:22:01;12.50;83.40
1716;DHT22;855;48.824;9.220;2023-04-01T18:24:33;12.40;84.10
1716;DHT22;855;48.824;9.220;2023-04-01T18:27:03;12.30;84.60
1716;DHT22;855;48.824;9.220;2023-04-01T18:29:40;12.30;85.00
1716;DHT22;855;48.824;9.220;2023-04-01T18:32:16;12.30;85.00
1716;DHT22;855;48.824;9.220;2023-04-01T18:34:55;12.40;84.80
1716;DHT22;855;48.824;9.220;2023-04-01T18:37:27;12.40;85.20
1716;DHT22;855;48.824;9.220;2023-04-01T18:40:03;12.50;84.90